sensor_id;sensor_type;location;lat;lon;timestamp;pressure;altitude;pressure_sealevel;temperature;humidity
50933;BME280;36921;49.006;9.292;2023-08-08T00:01:36;98944.19;;;11.98;100.00
50933;BME280;36921;49.006;9.292;2023-08-08T00:04:02;98944.16;;;12.04;100.00
50933;BME280;36921;49.006;9.292;2023-08-08T00:06:27;98936.25;;;11.96;100.00
50933;BME280;36921;49.006;9.292;2023-08-08T00:08:52;98949.78;;;11.96;100.00
50933;BME280;36921;49.006;9.292;2023-08-08T00:11:18;98952.91;;;11.87;100.00
50933;BME280;36921;49.006;9.292;2023-08-08T00:13:43;98956.25;;;11.82;100.00
50933;BME280;36921;49.006;9.292;2023-08-08T00:16:08;98952.88;;;11.80;100.00
50933;BME280;36921;49.006;9.292;2023-08-08T00:18:33;98948.53;;;11.79;100.00
50933;BME280;36921;49.006;9.292;2023-08-08T00:20:59;98954.34;;;11.82;100.00
50933;BME280;36921;49.006;9.292;2023-08-08T00:23:24;98944.34;;;11.70;100.00
50933;BME280;36921;49.006;9.292;2023-08-08T00:25:49;98954.97;;;11.71;100.00
50933;BME280;36921;49.006;9.292;2023-08-08T00:28:16;98970.81;;;11.68;100.00
50933;BME280;36921;49.006;9.292;2023-08-08T00:30:42;98962.66;;;11.68;100.00
50933;BME280;36921;49.006;9.292;2023-08-08T00:33:08;98953.06;;;11.65;100.00
50933;BME280;36921;49.006;9.292;2023-08-08T00:35:33;98961.84;;;11.67;100.00
50933;BME280;36921;49.006;9.292;2023-08-08T00:37:58;98949.13;;;11.68;100.00
50933;BME280;36921;49.006;9.292;2023-08-08T00:40:24;98944.53;;;11.68;100.00
50933;BME280;36921;49.006;9.292;2023-08-08T00:42:49;98950.59;;;11.77;100.00
50933;BME280;36921;49.006;9.292;2023-08-08T00:45:14;98941.84;;;11.75;100.00
50933;BME280;36921;49.006;9.292;2023-08-08T00:47:39;98940.78;;;11.76;100.00
50933;BME280;36921;49.006;9.292;2023-08-08T00:50:05;98943.28;;;11.71;100.00
50933;BME280;36921;49.006;9.292;2023-08-08T00:52:31;98944.53;;;11.68;100.00
50933;BME280;36921;49.006;9.292;2023-08-08T00:54:57;98947.25;;;11.75;100.00
50933;BME280;36921;49.006;9.292;2023-08-08T00:57:23;98946.84;;;11.71;100.00
50933;BME280;36921;49.006;9.292;2023-08-08T00:59:48;98939.34;;;11.67;100.00
50933;BME280;36921;49.006;9.292;2023-08-08T01:02:14;98938.69;;;11.65;100.00
50933;BME280;36921;49.006;9.292;2023-08-08T01:04:39;98939.53;;;11.72;100.00
50933;BME280;36921;49.006;9.292;2023-08-08T01:10:15;98934.78;;;11.87;100.00
50933;BME280;36921;49.006;9.292;2023-08-08T01:12:48;98933.09;;;11.86;100.00
50933;BME280;36921;49.006;9.292;2023-08-08T01:15:15;98928.72;;;11.85;100.00
50933;BME280;36921;49.006;9.292;2023-08-08T01:17:41;98926.63;;;11.80;100.00
50933;BME280;36921;49.006;9.292;2023-08-08T01:20:08;98917.03;;;11.78;100.00
50933;BME280;36921;49.006;9.292;2023-08-08T01:23:01;98930.41;;;11.86;100.00
50933;BME280;36921;49.006;9.292;2023-08-08T01:25:29;98930.78;;;11.83;100.00
50933;BME280;36921;49.006;9.292;2023-08-08T01:27:54;98933.28;;;11.78;100.00
50933;BME280;36921;49.006;9.292;2023-08-08T01:30:20;98940.78;;;11.76;100.00
50933;BME280;36921;49.006;9.292;2023-08-08T01:32:46;98937.84;;;11.71;100.00
50933;BME280;36921;49.006;9.292;2023-08-08T01:35:11;98932.66;;;11.62;100.00
50933;BME280;36921;49.006;9.292;2023-08-08T01:40:06;98930.78;;;11.56;100.00
50933;BME280;36921;49.006;9.292;2023-08-08T01:42:32;98939.13;;;11.61;100.00
50933;BME280;36921;49.006;9.292;2023-08-08T01:44:58;98925.13;;;11.58;100.00
50933;BME280;36921;49.006;9.292;2023-08-08T01:47:24;98927.44;;;11.68;100.00
50933;BME280;36921;49.006;9.292;2023-08-08T01:49:49;98921.59;;;11.71;100.00
50933;BME280;36921;49.006;9.292;2023-08-08T01:52:15;98924.72;;;11.68;100.00
50933;BME280;36921;49.006;9.292;2023-08-08T01:54:40;98929.34;;;11.74;100.00
50933;BME280;36921;49.006;9.292;2023-08-08T01:57:07;98933.72;;;11.75;100.00
50933;BME280;36921;49.006;9.292;2023-08-08T01:59:32;98913.06;;;11.74;100.00
50933;BME280;36921;49.006;9.292;2023-08-08T02:01:58;98920.78;;;11.77;100.00
50933;BME280;36921;49.006;9.292;2023-08-08T02:04:23;98919.72;;;11.78;100.00
50933;BME280;36921;49.006;9.292;2023-08-08T02:06:48;98920.16;;;11.75;100.00
50933;BME280;36921;49.006;9.292;2023-08-08T02:09:14;98908.91;;;11.71;100.00
50933;BME280;36921;49.006;9.292;2023-08-08T02:11:42;98918.50;;;11.74;100.00
50933;BME280;36921;49.006;9.292;2023-08-08T02:14:07;98918.28;;;11.69;100.00
50933;BME280;36921;49.006;9.292;2023-08-08T02:16:33;98926.41;;;11.75;100.00
50933;BME280;36921;49.006;9.292;2023-08-08T02:19:00;98912.03;;;11.75;100.00
50933;BME280;36921;49.006;9.292;2023-08-08T02:21:25;98915.38;;;11.77;100.00
50933;BME280;36921;49.006;9.292;2023-08-08T02:23:50;98913.91;;;11.74;100.00
50933;BME280;36921;49.006;9.292;2023-08-08T02:26:16;98909.31;;;11.75;100.00
50933;BME280;36921;49.006;9.292;2023-08-08T02:28:41;98906.19;;;11.78;100.00
50933;BME280;36921;49.006;9.292;2023-08-08T02:31:06;98910.97;;;11.82;100.00
50933;BME280;36921;49.006;9.292;2023-08-08T02:33:32;98897.22;;;11.77;100.00
50933;BME280;36921;49.006;9.292;2023-08-08T02:35:57;98909.13;;;11.76;100.00
50933;BME280;36921;49.006;9.292;2023-08-08T02:38:22;98914.31;;;11.78;100.00
50933;BME280;36921;49.006;9.292;2023-08-08T02:40:48;98918.66;;;11.66;100.00
50933;BME280;36921;49.006;9.292;2023-08-08T02:43:13;98919.91;;;11.50;100.00
50933;BME280;36921;49.006;9.292;2023-08-08T02:45:38;98927.81;;;11.38;100.00
50933;BME280;36921;49.006;9.292;2023-08-08T02:48:04;98914.44;;;11.16;100.00
50933;BME280;36921;49.006;9.292;2023-08-08T02:50:30;98939.84;;;11.15;100.00
50933;BME280;36921;49.006;9.292;2023-08-08T02:52:56;98944.19;;;11.03;100.00
50933;BME280;36921;49.006;9.292;2023-08-08T02:55:21;98934.31;;;10.82;100.00
50933;BME280;36921;49.006;9.292;2023-08-08T02:57:46;98943.03;;;10.78;100.00
50933;BME280;36921;49.006;9.292;2023-08-08T03:00:12;98930.88;;;10.60;100.00
50933;BME280;36921;49.006;9.292;2023-08-08T03:02:37;98943.69;;;10.45;100.00
50933;BME280;36921;49.006;9.292;2023-08-08T03:05:03;98947.84;;;10.41;100.00
50933;BME280;36921;49.006;9.292;2023-08-08T03:07:29;98954.25;;;10.40;100.00
50933;BME280;36921;49.006;9.292;2023-08-08T03:09:55;98939.38;;;10.22;100.00
50933;BME280;36921;49.006;9.292;2023-08-08T03:12:20;98951.66;;;10.25;100.00
50933;BME280;36921;49.006;9.292;2023-08-08T03:14:46;98946.78;;;10.14;100.00
50933;BME280;36921;49.006;9.292;2023-08-08T03:17:11;98943.41;;;10.05;100.00
50933;BME280;36921;49.006;9.292;2023-08-08T03:19:37;98943.16;;;10.00;100.00
50933;BME280;36921;49.006;9.292;2023-08-08T03:22:02;98945.44;;;10.03;100.00
50933;BME280;36921;49.006;9.292;2023-08-08T03:24:28;98942.59;;;10.11;100.00
50933;BME280;36921;49.006;9.292;2023-08-08T03:26:53;98959.97;;;10.23;100.00
50933;BME280;36921;49.006;9.292;2023-08-08T03:29:18;98953.91;;;10.21;100.00
50933;BME280;36921;49.006;9.292;2023-08-08T03:31:44;98936.81;;;10.14;100.00
50933;BME280;36921;49.006;9.292;2023-08-08T03:34:09;98927.03;;;10.13;100.00
50933;BME280;36921;49.006;9.292;2023-08-08T03:36:34;98945.19;;;10.19;100.00
50933;BME280;36921;49.006;9.292;2023-08-08T03:39:00;98937.66;;;10.15;100.00
50933;BME280;36921;49.006;9.292;2023-08-08T03:41:25;98944.97;;;10.21;100.00
50933;BME280;36921;49.006;9.292;2023-08-08T03:43:50;98941.25;;;10.22;100.00
50933;BME280;36921;49.006;9.292;2023-08-08T03:46:16;98962.09;;;10.28;100.00
50933;BME280;36921;49.006;9.292;2023-08-08T03:48:42;98920.97;;;10.11;100.00
50933;BME280;36921;49.006;9.292;2023-08-08T03:51:08;98947.78;;;10.34;100.00
50933;BME280;36921;49.006;9.292;2023-08-08T03:53:33;98912.53;;;10.21;100.00
50933;BME280;36921;49.006;9.292;2023-08-08T03:55:59;98892.34;;;10.17;100.00
50933;BME280;36921;49.006;9.292;2023-08-08T03:58:25;98951.50;;;10.61;100.00
50933;BME280;36921;49.006;9.292;2023-08-08T04:00:50;98946.31;;;10.66;100.00
50933;BME280;36921;49.006;9.292;2023-08-08T04:03:16;98954.50;;;10.80;100.00
50933;BME280;36921;49.006;9.292;2023-08-08T04:05:46;98935.34;;;10.81;100.00
50933;BME280;36921;49.006;9.292;2023-08-08T04:08:12;98939.81;;;11.02;100.00
50933;BME280;36921;49.006;9.292;2023-08-08T04:10:38;98942.31;;;11.10;100.00
50933;BME280;36921;49.006;9.292;2023-08-08T04:13:03;98928.41;;;11.20;100.00
50933;BME280;36921;49.006;9.292;2023-08-08T04:15:29;98934.88;;;11.26;100.00
50933;BME280;36921;49.006;9.292;2023-08-08T04:17:54;98916.75;;;11.26;100.00
50933;BME280;36921;49.006;9.292;2023-08-08T04:20:20;98934.06;;;11.32;100.00
50933;BME280;36921;49.006;9.292;2023-08-08T04:22:46;98924.47;;;11.29;100.00
50933;BME280;36921;49.006;9.292;2023-08-08T04:25:11;98920.31;;;11.27;100.00
50933;BME280;36921;49.006;9.292;2023-08-08T04:27:36;98939.06;;;11.41;100.00
50933;BME280;36921;49.006;9.292;2023-08-08T04:30:02;98908.22;;;11.36;100.00
50933;BME280;36921;49.006;9.292;2023-08-08T04:32:28;98918.25;;;11.49;100.00
50933;BME280;36921;49.006;9.292;2023-08-08T04:34:53;98938.28;;;11.61;100.00
50933;BME280;36921;49.006;9.292;2023-08-08T04:37:19;98928.28;;;11.61;100.00
50933;BME280;36921;49.006;9.292;2023-08-08T04:39:44;98931.59;;;11.70;100.00
50933;BME280;36921;49.006;9.292;2023-08-08T04:42:09;98930.16;;;11.81;100.00
50933;BME280;36921;49.006;9.292;2023-08-08T04:44:34;98923.09;;;11.93;100.00
50933;BME280;36921;49.006;9.292;2023-08-08T04:47:00;98914.31;;;12.04;100.00
50933;BME280;36921;49.006;9.292;2023-08-08T04:49:25;98898.69;;;12.06;100.00
50933;BME280;36921;49.006;9.292;2023-08-08T04:51:50;98901.19;;;12.08;100.00
50933;BME280;36921;49.006;9.292;2023-08-08T04:54:16;98911.59;;;12.18;100.00
50933;BME280;36921;49.006;9.292;2023-08-08T04:56:41;98896.41;;;12.03;100.00
50933;BME280;36921;49.006;9.292;2023-08-08T04:59:06;98893.91;;;12.09;100.00
50933;BME280;36921;49.006;9.292;2023-08-08T05:01:32;98905.34;;;12.17;100.00
50933;BME280;36921;49.006;9.292;2023-08-08T05:03:57;98909.09;;;12.23;100.00
50933;BME280;36921;49.006;9.292;2023-08-08T05:06:22;98893.88;;;12.15;100.00
50933;BME280;36921;49.006;9.292;2023-08-08T05:08:49;98896.97;;;12.25;100.00
50933;BME280;36921;49.006;9.292;2023-08-08T05:11:15;98914.88;;;12.46;100.00
50933;BME280;36921;49.006;9.292;2023-08-08T05:13:40;98916.94;;;12.58;100.00
50933;BME280;36921;49.006;9.292;2023-08-08T05:16:06;98905.44;;;12.69;100.00
50933;BME280;36921;49.006;9.292;2023-08-08T05:18:31;98895.97;;;12.85;100.00
50933;BME280;36921;49.006;9.292;2023-08-08T05:20:56;98897.22;;;13.27;100.00
50933;BME280;36921;49.006;9.292;2023-08-08T05:23:22;98878.44;;;13.57;100.00
50933;BME280;36921;49.006;9.292;2023-08-08T05:25:47;98873.59;;;13.85;100.00
50933;BME280;36921;49.006;9.292;2023-08-08T05:28:13;98883.69;;;14.02;100.00
50933;BME280;36921;49.006;9.292;2023-08-08T05:30:39;98886.28;;;14.16;100.00
50933;BME280;36921;49.006;9.292;2023-08-08T05:33:04;98884.53;;;14.21;100.00
50933;BME280;36921;49.006;9.292;2023-08-08T05:35:30;98882.13;;;14.32;100.00
50933;BME280;36921;49.006;9.292;2023-08-08T05:37:55;98860.47;;;14.00;100.00
50933;BME280;36921;49.006;9.292;2023-08-08T05:40:20;98884.97;;;14.00;100.00
50933;BME280;36921;49.006;9.292;2023-08-08T05:42:46;98882.38;;;13.87;100.00
50933;BME280;36921;49.006;9.292;2023-08-08T05:45:11;98890.13;;;13.83;100.00
50933;BME280;36921;49.006;9.292;2023-08-08T05:47:36;98884.63;;;13.90;100.00
50933;BME280;36921;49.006;9.292;2023-08-08T05:50:02;98900.88;;;14.21;100.00
50933;BME280;36921;49.006;9.292;2023-08-08T05:52:27;98889.00;;;14.59;100.00
50933;BME280;36921;49.006;9.292;2023-08-08T05:54:52;98900.81;;;15.02;100.00
50933;BME280;36921;49.006;9.292;2023-08-08T05:57:18;98876.94;;;15.16;100.00
50933;BME280;36921;49.006;9.292;2023-08-08T05:59:43;98879.19;;;15.19;100.00
50933;BME280;36921;49.006;9.292;2023-08-08T06:02:10;98878.66;;;15.40;100.00
50933;BME280;36921;49.006;9.292;2023-08-08T06:04:35;98885.38;;;15.68;100.00
50933;BME280;36921;49.006;9.292;2023-08-08T06:07:00;98879.47;;;15.71;100.00
50933;BME280;36921;49.006;9.292;2023-08-08T06:09:26;98874.75;;;15.90;100.00
50933;BME280;36921;49.006;9.292;2023-08-08T06:11:51;98867.53;;;15.72;100.00
50933;BME280;36921;49.006;9.292;2023-08-08T06:14:16;98884.16;;;15.64;100.00
50933;BME280;36921;49.006;9.292;2023-08-08T06:16:42;98870.53;;;15.64;100.00
50933;BME280;36921;49.006;9.292;2023-08-08T06:19:08;98870.97;;;16.14;100.00
50933;BME280;36921;49.006;9.292;2023-08-08T06:21:35;98865.09;;;17.56;100.00
50933;BME280;36921;49.006;9.292;2023-08-08T06:24:01;98851.31;;;20.25;100.00
50933;BME280;36921;49.006;9.292;2023-08-08T06:26:26;98858.16;;;22.35;100.00
50933;BME280;36921;49.006;9.292;2023-08-08T06:28:51;98862.97;;;22.74;100.00
50933;BME280;36921;49.006;9.292;2023-08-08T06:31:17;98854.53;;;24.52;87.27
50933;BME280;36921;49.006;9.292;2023-08-08T06:33:43;98849.81;;;25.95;74.59
50933;BME280;36921;49.006;9.292;2023-08-08T06:36:08;98854.28;;;26.57;67.54
50933;BME280;36921;49.006;9.292;2023-08-08T06:38:33;98846.31;;;27.19;64.33
50933;BME280;36921;49.006;9.292;2023-08-08T06:41:00;98856.22;;;26.70;62.48
50933;BME280;36921;49.006;9.292;2023-08-08T06:43:25;98861.38;;;28.22;59.32
50933;BME280;36921;49.006;9.292;2023-08-08T06:45:51;98858.34;;;29.30;56.43
50933;BME280;36921;49.006;9.292;2023-08-08T06:48:16;98842.44;;;30.00;53.63
50933;BME280;36921;49.006;9.292;2023-08-08T06:50:42;98837.72;;;29.83;52.11
50933;BME280;36921;49.006;9.292;2023-08-08T06:53:07;98848.84;;;28.73;54.20
50933;BME280;36921;49.006;9.292;2023-08-08T06:55:33;98852.91;;;26.96;57.40
50933;BME280;36921;49.006;9.292;2023-08-08T06:57:58;98858.47;;;25.18;60.29
50933;BME280;36921;49.006;9.292;2023-08-08T07:00:23;98848.63;;;26.62;57.37
50933;BME280;36921;49.006;9.292;2023-08-08T07:02:49;98850.97;;;26.96;57.45
50933;BME280;36921;49.006;9.292;2023-08-08T07:05:14;98842.31;;;26.42;58.02
50933;BME280;36921;49.006;9.292;2023-08-08T07:07:40;98841.97;;;28.71;55.02
50933;BME280;36921;49.006;9.292;2023-08-08T07:10:05;98844.38;;;28.63;52.63
50933;BME280;36921;49.006;9.292;2023-08-08T07:12:31;98848.91;;;28.82;51.80
50933;BME280;36921;49.006;9.292;2023-08-08T07:14:57;98839.31;;;28.34;51.53
50933;BME280;36921;49.006;9.292;2023-08-08T07:17:22;98853.72;;;27.10;54.71
50933;BME280;36921;49.006;9.292;2023-08-08T07:19:48;98842.84;;;28.89;52.22
50933;BME280;36921;49.006;9.292;2023-08-08T07:22:13;98843.06;;;30.31;48.46
50933;BME280;36921;49.006;9.292;2023-08-08T07:24:38;98840.81;;;30.93;46.71
50933;BME280;36921;49.006;9.292;2023-08-08T07:27:04;98838.84;;;29.90;46.26
50933;BME280;36921;49.006;9.292;2023-08-08T07:29:29;98835.88;;;29.96;47.41
50933;BME280;36921;49.006;9.292;2023-08-08T07:31:57;98829.75;;;30.28;47.77
50933;BME280;36921;49.006;9.292;2023-08-08T07:34:22;98832.41;;;31.22;45.08
50933;BME280;36921;49.006;9.292;2023-08-08T07:36:48;98833.66;;;30.83;45.80
50933;BME280;36921;49.006;9.292;2023-08-08T07:39:14;98831.16;;;29.61;47.65
50933;BME280;36921;49.006;9.292;2023-08-08T07:41:40;98829.78;;;30.11;46.39
50933;BME280;36921;49.006;9.292;2023-08-08T07:44:05;98831.22;;;28.95;47.49
50933;BME280;36921;49.006;9.292;2023-08-08T07:46:31;98825.47;;;28.83;48.02
50933;BME280;36921;49.006;9.292;2023-08-08T07:48:57;98829.03;;;28.04;48.43
50933;BME280;36921;49.006;9.292;2023-08-08T07:51:25;98831.63;;;29.55;47.31
50933;BME280;36921;49.006;9.292;2023-08-08T07:53:50;98822.00;;;30.72;44.73
50933;BME280;36921;49.006;9.292;2023-08-08T07:56:16;98813.53;;;33.38;41.82
50933;BME280;36921;49.006;9.292;2023-08-08T07:58:41;98811.09;;;33.77;40.46
50933;BME280;36921;49.006;9.292;2023-08-08T08:01:07;98816.72;;;30.50;42.42
50933;BME280;36921;49.006;9.292;2023-08-08T08:03:32;98819.69;;;32.55;41.56
50933;BME280;36921;49.006;9.292;2023-08-08T08:05:57;98819.31;;;32.68;40.72
50933;BME280;36921;49.006;9.292;2023-08-08T08:08:23;98812.63;;;32.36;41.11
50933;BME280;36921;49.006;9.292;2023-08-08T08:10:50;98813.59;;;29.09;43.65
50933;BME280;36921;49.006;9.292;2023-08-08T08:13:16;98809.63;;;28.52;44.19
50933;BME280;36921;49.006;9.292;2023-08-08T08:15:42;98823.22;;;28.23;46.34
50933;BME280;36921;49.006;9.292;2023-08-08T08:18:08;98819.56;;;26.96;47.87
50933;BME280;36921;49.006;9.292;2023-08-08T08:20:33;98828.91;;;24.17;53.85
50933;BME280;36921;49.006;9.292;2023-08-08T08:22:59;98821.78;;;24.64;54.52
50933;BME280;36921;49.006;9.292;2023-08-08T08:25:24;98826.38;;;23.18;58.07
50933;BME280;36921;49.006;9.292;2023-08-08T08:27:50;98830.88;;;21.87;61.36
50933;BME280;36921;49.006;9.292;2023-08-08T08:30:15;98825.31;;;23.14;61.33
50933;BME280;36921;49.006;9.292;2023-08-08T08:32:41;98828.97;;;23.44;60.60
50933;BME280;36921;49.006;9.292;2023-08-08T08:35:07;98833.91;;;23.47;59.79
50933;BME280;36921;49.006;9.292;2023-08-08T08:37:33;98828.72;;;22.90;62.08
50933;BME280;36921;49.006;9.292;2023-08-08T08:39:59;98825.13;;;24.08;60.66
50933;BME280;36921;49.006;9.292;2023-08-08T08:42:26;98829.44;;;24.48;59.22
50933;BME280;36921;49.006;9.292;2023-08-08T08:44:57;98825.28;;;24.22;60.05
50933;BME280;36921;49.006;9.292;2023-08-08T08:47:24;98821.34;;;26.36;54.45
50933;BME280;36921;49.006;9.292;2023-08-08T08:49:53;98829.38;;;26.79;53.03
50933;BME280;36921;49.006;9.292;2023-08-08T08:52:20;98831.41;;;24.43;56.24
50933;BME280;36921;49.006;9.292;2023-08-08T08:54:45;98827.19;;;24.93;56.05
50933;BME280;36921;49.006;9.292;2023-08-08T08:57:11;98819.81;;;24.65;56.61
50933;BME280;36921;49.006;9.292;2023-08-08T08:59:37;98817.69;;;24.33;58.37
50933;BME280;36921;49.006;9.292;2023-08-08T09:02:02;98828.03;;;23.58;58.67
50933;BME280;36921;49.006;9.292;2023-08-08T09:04:29;98815.34;;;24.69;57.38
50933;BME280;36921;49.006;9.292;2023-08-08T09:06:55;98809.66;;;24.60;56.70
50933;BME280;36921;49.006;9.292;2023-08-08T09:09:22;98813.16;;;25.09;55.75
50933;BME280;36921;49.006;9.292;2023-08-08T09:11:49;98814.72;;;24.00;56.09
50933;BME280;36921;49.006;9.292;2023-08-08T09:14:20;98811.50;;;26.58;53.22
50933;BME280;36921;49.006;9.292;2023-08-08T09:16:46;98820.41;;;27.46;50.82
50933;BME280;36921;49.006;9.292;2023-08-08T09:19:13;98811.34;;;26.08;51.60
50933;BME280;36921;49.006;9.292;2023-08-08T09:21:39;98811.44;;;26.02;53.35
50933;BME280;36921;49.006;9.292;2023-08-08T09:24:04;98816.81;;;24.37;56.95
50933;BME280;36921;49.006;9.292;2023-08-08T09:26:30;98812.75;;;25.21;55.89
50933;BME280;36921;49.006;9.292;2023-08-08T09:28:56;98804.66;;;26.22;55.78
50933;BME280;36921;49.006;9.292;2023-08-08T09:31:25;98808.47;;;26.96;53.26
50933;BME280;36921;49.006;9.292;2023-08-08T09:33:51;98806.38;;;27.15;51.94
50933;BME280;36921;49.006;9.292;2023-08-08T09:36:17;98799.06;;;27.78;52.42
50933;BME280;36921;49.006;9.292;2023-08-08T09:38:44;98793.63;;;28.27;49.42
50933;BME280;36921;49.006;9.292;2023-08-08T09:41:11;98792.28;;;29.30;46.14
50933;BME280;36921;49.006;9.292;2023-08-08T09:43:37;98780.94;;;30.82;43.95
50933;BME280;36921;49.006;9.292;2023-08-08T09:46:03;98776.03;;;29.49;43.37
50933;BME280;36921;49.006;9.292;2023-08-08T09:48:32;98769.09;;;27.97;47.44
50933;BME280;36921;49.006;9.292;2023-08-08T09:50:59;98779.22;;;26.34;50.64
50933;BME280;36921;49.006;9.292;2023-08-08T09:53:26;98776.22;;;26.17;49.75
50933;BME280;36921;49.006;9.292;2023-08-08T09:55:56;98776.16;;;28.35;48.04
50933;BME280;36921;49.006;9.292;2023-08-08T09:58:22;98779.84;;;28.22;47.34
50933;BME280;36921;49.006;9.292;2023-08-08T10:00:51;98773.94;;;26.88;49.01
50933;BME280;36921;49.006;9.292;2023-08-08T10:03:18;98783.53;;;30.87;43.66
50933;BME280;36921;49.006;9.292;2023-08-08T10:05:45;98772.25;;;32.37;40.86
50933;BME280;36921;49.006;9.292;2023-08-08T10:08:11;98771.19;;;31.51;41.96
50933;BME280;36921;49.006;9.292;2023-08-08T10:10:37;98772.16;;;30.92;41.64
50933;BME280;36921;49.006;9.292;2023-08-08T10:13:05;98757.28;;;31.21;41.23
50933;BME280;36921;49.006;9.292;2023-08-08T10:15:30;98762.66;;;32.38;39.49
50933;BME280;36921;49.006;9.292;2023-08-08T10:17:57;98760.94;;;34.87;36.52
50933;BME280;36921;49.006;9.292;2023-08-08T10:20:24;98768.81;;;33.58;35.52
50933;BME280;36921;49.006;9.292;2023-08-08T10:22:52;98765.97;;;35.13;36.28
50933;BME280;36921;49.006;9.292;2023-08-08T10:25:26;98767.31;;;33.20;36.03
50933;BME280;36921;49.006;9.292;2023-08-08T10:30:29;98766.72;;;30.57;39.92
50933;BME280;36921;49.006;9.292;2023-08-08T10:32:56;98765.09;;;30.26;39.28
50933;BME280;36921;49.006;9.292;2023-08-08T10:35:22;98767.94;;;30.47;38.41
50933;BME280;36921;49.006;9.292;2023-08-08T10:37:54;98775.16;;;30.48;38.82
50933;BME280;36921;49.006;9.292;2023-08-08T10:40:20;98763.72;;;29.59;39.58
50933;BME280;36921;49.006;9.292;2023-08-08T10:42:46;98775.47;;;27.98;41.49
50933;BME280;36921;49.006;9.292;2023-08-08T10:45:15;98762.66;;;28.59;40.91
50933;BME280;36921;49.006;9.292;2023-08-08T10:47:41;98769.97;;;29.13;41.43
50933;BME280;36921;49.006;9.292;2023-08-08T10:52:54;98771.00;;;30.16;41.96
50933;BME280;36921;49.006;9.292;2023-08-08T10:55:22;98763.22;;;29.83;40.49
50933;BME280;36921;49.006;9.292;2023-08-08T10:57:57;98781.84;;;26.95;43.51
50933;BME280;36921;49.006;9.292;2023-08-08T11:00:35;98768.88;;;27.18;44.63
50933;BME280;36921;49.006;9.292;2023-08-08T11:03:01;98760.88;;;30.03;42.34
50933;BME280;36921;49.006;9.292;2023-08-08T11:05:29;98758.00;;;31.39;39.79
50933;BME280;36921;49.006;9.292;2023-08-08T11:07:56;98755.13;;;32.76;38.89
50933;BME280;36921;49.006;9.292;2023-08-08T11:10:22;98749.03;;;31.46;38.27
50933;BME280;36921;49.006;9.292;2023-08-08T11:12:58;98754.56;;;29.50;39.30
50933;BME280;36921;49.006;9.292;2023-08-08T11:15:24;98747.53;;;31.81;37.80
50933;BME280;36921;49.006;9.292;2023-08-08T11:17:53;98740.06;;;32.56;35.67
50933;BME280;36921;49.006;9.292;2023-08-08T11:20:18;98756.97;;;32.71;36.25
50933;BME280;36921;49.006;9.292;2023-08-08T11:22:43;98751.94;;;32.77;38.17
50933;BME280;36921;49.006;9.292;2023-08-08T11:25:09;98747.06;;;34.27;35.99
50933;BME280;36921;49.006;9.292;2023-08-08T11:27:34;98748.47;;;33.61;36.24
50933;BME280;36921;49.006;9.292;2023-08-08T11:30:00;98759.53;;;32.15;36.42
50933;BME280;36921;49.006;9.292;2023-08-08T11:32:27;98752.59;;;31.34;38.18
50933;BME280;36921;49.006;9.292;2023-08-08T11:34:54;98751.84;;;31.91;36.84
50933;BME280;36921;49.006;9.292;2023-08-08T11:37:20;98744.31;;;31.58;36.26
50933;BME280;36921;49.006;9.292;2023-08-08T11:39:47;98741.91;;;29.53;39.06
50933;BME280;36921;49.006;9.292;2023-08-08T11:42:13;98742.72;;;28.92;39.32
50933;BME280;36921;49.006;9.292;2023-08-08T11:44:40;98737.66;;;28.77;40.76
50933;BME280;36921;49.006;9.292;2023-08-08T11:47:06;98743.19;;;29.90;38.59
50933;BME280;36921;49.006;9.292;2023-08-08T11:49:40;98721.91;;;29.68;39.11
50933;BME280;36921;49.006;9.292;2023-08-08T11:52:07;98736.47;;;27.81;41.33
50933;BME280;36921;49.006;9.292;2023-08-08T11:54:32;98734.47;;;27.50;41.34
50933;BME280;36921;49.006;9.292;2023-08-08T11:56:58;98728.81;;;26.82;42.95
50933;BME280;36921;49.006;9.292;2023-08-08T11:59:23;98738.41;;;26.76;44.63
50933;BME280;36921;49.006;9.292;2023-08-08T12:01:49;98710.94;;;28.18;41.64
50933;BME280;36921;49.006;9.292;2023-08-08T12:04:14;98715.22;;;28.82;40.54
50933;BME280;36921;49.006;9.292;2023-08-08T12:06:40;98723.06;;;29.49;40.18
50933;BME280;36921;49.006;9.292;2023-08-08T12:09:11;98719.63;;;29.53;39.06
50933;BME280;36921;49.006;9.292;2023-08-08T12:11:39;98731.91;;;28.65;40.95
50933;BME280;36921;49.006;9.292;2023-08-08T12:14:07;98716.88;;;29.18;40.40
50933;BME280;36921;49.006;9.292;2023-08-08T12:16:33;98714.41;;;29.34;39.85
50933;BME280;36921;49.006;9.292;2023-08-08T12:19:02;98714.88;;;28.83;39.98
50933;BME280;36921;49.006;9.292;2023-08-08T12:21:28;98714.22;;;28.78;39.56
50933;BME280;36921;49.006;9.292;2023-08-08T12:23:53;98705.34;;;29.63;39.97
50933;BME280;36921;49.006;9.292;2023-08-08T12:26:19;98703.81;;;30.89;40.19
50933;BME280;36921;49.006;9.292;2023-08-08T12:28:44;98706.94;;;31.75;38.51
50933;BME280;36921;49.006;9.292;2023-08-08T12:31:10;98710.22;;;29.83;39.33
50933;BME280;36921;49.006;9.292;2023-08-08T12:33:35;98717.56;;;27.91;41.03
50933;BME280;36921;49.006;9.292;2023-08-08T12:36:01;98711.22;;;28.00;41.74
50933;BME280;36921;49.006;9.292;2023-08-08T12:38:26;98702.19;;;26.81;42.79
50933;BME280;36921;49.006;9.292;2023-08-08T12:40:51;98705.09;;;30.03;40.20
50933;BME280;36921;49.006;9.292;2023-08-08T12:43:17;98694.31;;;31.36;37.98
50933;BME280;36921;49.006;9.292;2023-08-08T12:45:46;98709.16;;;31.36;37.61
50933;BME280;36921;49.006;9.292;2023-08-08T12:48:13;98696.56;;;31.63;37.63
50933;BME280;36921;49.006;9.292;2023-08-08T12:50:38;98707.53;;;30.93;35.70
50933;BME280;36921;49.006;9.292;2023-08-08T12:53:04;98711.44;;;29.56;37.17
50933;BME280;36921;49.006;9.292;2023-08-08T12:55:30;98710.59;;;28.51;38.31
50933;BME280;36921;49.006;9.292;2023-08-08T12:57:56;98703.03;;;29.82;37.58
50933;BME280;36921;49.006;9.292;2023-08-08T13:00:21;98697.78;;;31.20;35.35